Time;durP1;ratioP1;P1;durP2;ratioP2;P2;SDS_P1;SDS_P2;PMS_P1;PMS_P2;Temp;Humidity;BMP_temperature;BMP_pressure;BME280_temperature;BME280_humidity;BME280_pressure;Samples;Min_cycle;Max_cycle;Signal;HPM_P1;HPM_P2
2021/04/15 00:00:42;;;;;;;6.43;3.80;;;5.20;42.40;;;;;;5095078;28;20677;-81
2021/04/15 00:03:17;;;;;;;4.20;3.27;;;5.20;45.30;;;;;;5075198;28;20178;-81
2021/04/15 00:05:44;;;;;;;5.77;3.97;;;5.20;46.50;;;;;;5093854;28;20171;-82
2021/04/15 00:08:11;;;;;;;7.30;3.77;;;5.10;47.50;;;;;;5075357;28;20172;-82
2021/04/15 00:10:41;;;;;;;6.33;3.37;;;5.10;50.20;;;;;;5075646;28;20175;-83
2021/04/15 00:13:12;;;;;;;6.57;3.80;;;5.10;50.30;;;;;;5093924;28;20273;-83
2021/04/15 00:15:38;;;;;;;8.13;3.80;;;5.10;49.90;;;;;;5076128;28;20176;-81
2021/04/15 00:18:04;;;;;;;10.57;3.80;;;5.10;51.20;;;;;;5078072;28;20510;-84
2021/04/15 00:20:29;;;;;;;6.63;3.47;;;5.10;49.80;;;;;;5077566;28;20175;-83
2021/04/15 00:22:57;;;;;;;7.93;3.87;;;5.20;50.30;;;;;;5077878;28;20547;-83
2021/04/15 00:25:23;;;;;;;4.00;2.90;;;5.10;50.00;;;;;;5095904;28;20628;-82
2021/04/15 00:27:48;;;;;;;5.87;3.70;;;5.10;49.30;;;;;;5095623;28;20182;-83
2021/04/15 00:30:15;;;;;;;6.77;3.37;;;5.10;48.30;;;;;;5095792;28;20207;-83
2021/04/15 00:32:40;;;;;;;7.40;3.10;;;5.10;47.80;;;;;;5095355;28;20624;-82
2021/04/15 00:35:07;;;;;;;5.47;3.50;;;5.00;47.00;;;;;;5077562;28;20179;-83
2021/04/15 00:37:32;;;;;;;6.70;3.50;;;5.00;50.30;;;;;;5077682;28;20224;-81
2021/04/15 00:39:58;;;;;;;4.97;3.20;;;5.00;51.90;;;;;;5077321;28;20175;-82
2021/04/15 00:42:24;;;;;;;5.90;3.23;;;5.00;49.90;;;;;;5077348;28;20266;-81
2021/04/15 00:44:52;;;;;;;6.23;3.50;;;5.00;49.20;;;;;;5095398;28;20172;-82
2021/04/15 00:47:26;;;;;;;5.07;3.37;;;5.00;50.30;;;;;;5077261;28;20527;-83
2021/04/15 00:49:58;;;;;;;7.23;3.10;;;5.00;49.60;;;;;;5095382;28;20198;-81
2021/04/15 00:52:30;;;;;;;7.53;3.33;;;5.00;50.40;;;;;;5095554;28;20164;-81
2021/04/15 00:55:07;;;;;;;5.03;3.10;;;5.00;49.40;;;;;;5077184;28;20267;-80
2021/04/15 00:57:37;;;;;;;7.53;2.73;;;4.90;50.80;;;;;;5095292;28;20164;-82
2021/04/15 01:00:07;;;;;;;5.53;3.00;;;4.90;52.00;;;;;;5076884;28;20654;-81
2021/04/15 01:02:34;;;;;;;5.33;3.07;;;5.00;51.70;;;;;;5094788;28;20179;-79
2021/04/15 01:05:21;;;;;;;6.73;2.60;;;5.00;49.50;;;;;;5076890;28;20305;-82
2021/04/15 01:07:49;;;;;;;4.07;2.37;;;4.80;54.90;;;;;;5062806;28;20176;-81
2021/04/15 01:10:16;;;;;;;4.33;2.77;;;4.90;55.50;;;;;;5076687;28;20290;-81
2021/04/15 01:12:53;;;;;;;5.20;2.67;;;4.90;56.40;;;;;;5095062;28;20195;-81
2021/04/15 01:15:59;;;;;;;4.30;2.50;;;4.80;58.60;;;;;;5076490;28;20179;-83
2021/04/15 01:18:53;;;;;;;4.83;3.10;;;4.70;60.50;;;;;;5094671;28;20168;-83
2021/04/15 01:21:32;;;;;;;5.20;2.73;;;4.70;62.70;;;;;;5076659;28;20202;-81
2021/04/15 01:24:12;;;;;;;4.87;2.77;;;4.70;64.30;;;;;;5076415;28;20171;-83
2021/04/15 01:27:15;;;;;;;6.63;3.00;;;4.60;63.70;;;;;;5094115;28;20179;-81
2021/04/15 01:29:50;;;;;;;5.70;3.20;;;4.60;64.30;;;;;;5094298;28;20211;-81
2021/04/15 01:32:27;;;;;;;7.40;3.23;;;4.60;64.00;;;;;;5094652;28;20194;-82
2021/04/15 01:35:04;;;;;;;5.57;3.27;;;4.60;66.10;;;;;;5076384;28;20167;-81
2021/04/15 01:37:47;;;;;;;6.60;3.30;;;4.60;67.00;;;;;;5076658;28;20167;-81
2021/04/15 01:40:16;;;;;;;5.20;3.30;;;4.60;66.90;;;;;;5094392;28;20170;-81
2021/04/15 01:42:50;;;;;;;5.97;3.20;;;4.50;66.70;;;;;;5094423;28;20225;-80
2021/04/15 01:45:16;;;;;;;5.53;2.90;;;4.50;68.60;;;;;;5094067;28;20182;-83
2021/04/15 01:48:02;;;;;;;7.70;3.90;;;4.70;69.60;;;;;;5094685;28;20251;-83
2021/04/15 01:50:53;;;;;;;7.37;3.60;;;4.50;70.10;;;;;;5075960;28;20209;-81
2021/04/15 01:53:28;;;;;;;5.20;3.60;;;4.50;69.60;;;;;;5065447;28;20180;-79
2021/04/15 01:56:02;;;;;;;7.47;3.67;;;4.50;71.70;;;;;;5076225;28;20167;-82
2021/04/15 01:58:44;;;;;;;7.03;3.37;;;4.40;73.10;;;;;;5076144;28;20805;-81
2021/04/15 02:01:16;;;;;;;6.57;3.50;;;4.40;73.00;;;;;;5075817;28;20202;-82
2021/04/15 02:03:45;;;;;;;7.27;4.73;;;4.40;73.40;;;;;;5094246;28;20242;-83
2021/04/15 02:06:23;;;;;;;4.93;3.40;;;4.40;74.30;;;;;;5094284;28;20171;-82
2021/04/15 02:08:52;;;;;;;9.67;3.47;;;4.40;73.90;;;;;;5076019;28;20214;-81
2021/04/15 02:11:24;;;;;;;5.17;3.60;;;4.40;75.10;;;;;;5093982;28;20168;-81
2021/04/15 02:13:52;;;;;;;5.30;3.53;;;4.40;75.00;;;;;;5093864;28;20518;-81
2021/04/15 02:16:24;;;;;;;8.50;4.07;;;4.40;75.80;;;;;;5093835;28;20168;-80
2021/04/15 02:18:59;;;;;;;6.10;3.40;;;4.40;75.80;;;;;;5094101;28;20521;-80
2021/04/15 02:21:25;;;;;;;7.20;3.23;;;4.40;74.90;;;;;;5075872;28;20175;-79
2021/04/15 02:23:59;;;;;;;8.10;3.43;;;4.40;75.20;;;;;;5075875;28;20224;-82
2021/04/15 02:26:33;;;;;;;7.07;3.17;;;4.40;75.80;;;;;;5093890;28;20175;-83
2021/04/15 02:29:12;;;;;;;6.70;3.33;;;4.40;76.60;;;;;;5075206;28;20563;-82
2021/04/15 02:32:01;;;;;;;7.47;3.77;;;4.30;76.60;;;;;;5093840;28;20178;-82
2021/04/15 02:34:40;;;;;;;6.97;3.37;;;4.40;76.40;;;;;;5075398;28;20248;-81
2021/04/15 02:37:19;;;;;;;7.90;3.47;;;4.20;78.20;;;;;;5075275;28;20171;-81
2021/04/15 02:39:54;;;;;;;7.07;3.20;;;4.10;80.10;;;;;;5075116;28;20182;-79
2021/04/15 02:42:27;;;;;;;9.50;3.60;;;4.10;81.90;;;;;;5093207;28;20447;-80
2021/04/15 02:45:17;;;;;;;6.10;3.50;;;4.20;81.70;;;;;;5093492;28;20220;-81
2021/04/15 02:47:53;;;;;;;6.63;3.40;;;4.20;80.50;;;;;;5075447;28;20180;-79
2021/04/15 02:50:22;;;;;;;9.13;4.40;;;4.20;81.00;;;;;;5075023;28;20210;-80
2021/04/15 02:52:54;;;;;;;7.83;3.60;;;4.20;81.50;;;;;;5075221;28;20168;-81
2021/04/15 02:55:24;;;;;;;7.97;3.90;;;4.20;81.70;;;;;;5093421;28;20225;-80
2021/04/15 02:57:59;;;;;;;5.60;3.40;;;4.10;82.60;;;;;;5074749;28;20176;-81
2021/04/15 03:00:27;;;;;;;10.03;3.60;;;4.10;83.90;;;;;;5093068;28;20191;-80
2021/04/15 03:03:14;;;;;;;9.80;3.43;;;4.20;82.60;;;;;;5093103;28;20529;-80
2021/04/15 03:05:47;;;;;;;10.00;4.80;;;4.10;82.80;;;;;;5093147;28;20198;-82
2021/04/15 03:08:18;;;;;;;6.70;3.83;;;4.10;84.00;;;;;;5074947;28;20178;-80
2021/04/15 03:11:12;;;;;;;6.70;3.70;;;4.00;83.90;;;;;;5074909;28;20179;-79
2021/04/15 03:13:46;;;;;;;6.83;3.93;;;4.00;85.50;;;;;;5088768;28;20190;-82
2021/04/15 03:16:12;;;;;;;9.97;3.97;;;4.00;86.20;;;;;;5074700;28;20316;-82
2021/04/15 03:18:54;;;;;;;6.80;4.13;;;4.00;86.80;;;;;;5093010;28;20164;-80
2021/04/15 03:21:30;;;;;;;8.87;4.87;;;4.00;87.50;;;;;;5092691;28;20180;-82
2021/04/15 03:24:03;;;;;;;10.47;4.50;;;3.90;88.30;;;;;;5074585;28;20175;-79
2021/04/15 03:26:57;;;;;;;5.87;4.10;;;3.90;89.40;;;;;;5074338;28;20172;-80
2021/04/15 03:29:25;;;;;;;10.03;4.40;;;3.90;90.20;;;;;;5092673;28;20632;-79
2021/04/15 03:32:09;;;;;;;6.60;4.20;;;3.80;90.10;;;;;;5074681;28;20529;-79
2021/04/15 03:34:47;;;;;;;7.27;3.60;;;3.80;90.60;;;;;;5092770;28;20160;-81
2021/04/15 03:37:20;;;;;;;8.50;4.43;;;3.80;90.70;;;;;;5092860;28;20225;-79
2021/04/15 03:39:48;;;;;;;5.73;4.03;;;3.80;91.00;;;;;;5074624;28;20714;-80
2021/04/15 03:42:29;;;;;;;11.47;5.77;;;3.90;90.60;;;;;;5091842;28;20168;-79
2021/04/15 03:45:02;;;;;;;6.77;3.97;;;3.90;90.80;;;;;;5092749;28;20180;-81
2021/04/15 03:47:36;;;;;;;9.47;4.50;;;4.00;90.00;;;;;;5092393;28;20488;-80
2021/04/15 03:50:20;;;;;;;9.47;4.43;;;3.90;90.60;;;;;;5074481;28;20203;-79
2021/04/15 03:52:52;;;;;;;10.67;4.50;;;3.90;90.50;;;;;;5096615;28;20252;-79
2021/04/15 03:55:26;;;;;;;6.60;3.90;;;4.00;90.40;;;;;;5096352;28;20171;-81
2021/04/15 03:57:58;;;;;;;7.90;4.90;;;4.00;90.00;;;;;;5078217;28;20167;-81
2021/04/15 04:00:32;;;;;;;9.10;5.40;;;3.90;90.00;;;;;;5078287;28;20216;-79
2021/04/15 04:03:04;;;;;;;7.70;4.57;;;3.90;90.30;;;;;;5078148;28;20183;-83
2021/04/15 04:05:38;;;;;;;7.70;4.37;;;3.90;90.30;;;;;;5096514;28;20163;-80
2021/04/15 04:08:09;;;;;;;7.40;4.87;;;3.90;90.60;;;;;;5078015;28;20178;-81
2021/04/15 04:10:44;;;;;;;8.07;4.33;;;3.90;90.90;;;;;;5077787;28;20183;-79
2021/04/15 04:13:40;;;;;;;10.27;4.60;;;4.00;90.00;;;;;;5095738;28;20168;-80
2021/04/15 04:16:15;;;;;;;11.90;5.13;;;4.00;89.70;;;;;;5096175;28;20167;-79
2021/04/15 04:18:58;;;;;;;7.20;4.50;;;4.00;90.50;;;;;;5095760;28;20215;-82
2021/04/15 04:21:34;;;;;;;11.33;5.57;;;4.00;90.20;;;;;;5096092;28;20171;-84
2021/04/15 04:24:14;;;;;;;12.87;4.93;;;4.00;90.50;;;;;;5077439;28;20266;-79
2021/04/15 04:26:50;;;;;;;10.73;5.10;;;4.00;90.70;;;;;;5095877;28;20168;-82
2021/04/15 04:29:53;;;;;;;11.97;4.83;;;4.00;90.70;;;;;;5095434;28;20556;-80
2021/04/15 04:32:21;;;;;;;9.37;5.20;;;4.00;90.70;;;;;;5082615;28;20278;-81
2021/04/15 04:34:55;;;;;;;9.20;5.70;;;4.00;91.20;;;;;;5095567;28;20163;-82
2021/04/15 04:37:24;;;;;;;8.10;5.20;;;4.00;91.40;;;;;;5077250;28;20698;-79
2021/04/15 04:39:50;;;;;;;9.90;5.07;;;4.10;91.00;;;;;;5094909;28;20704;-82
2021/04/15 04:42:39;;;;;;;10.03;5.80;;;3.90;90.90;;;;;;5095075;28;20243;-80
2021/04/15 04:45:08;;;;;;;9.53;5.73;;;3.80;91.70;;;;;;5077045;28;20188;-80
2021/04/15 04:47:46;;;;;;;12.30;5.77;;;3.80;92.10;;;;;;5095741;28;20164;-81
2021/04/15 04:50:23;;;;;;;11.83;5.73;;;3.90;92.30;;;;;;5095058;28;20203;-80
2021/04/15 04:53:05;;;;;;;7.83;5.47;;;3.80;92.30;;;;;;5076817;28;20213;-80
2021/04/15 04:55:37;;;;;;;8.87;5.37;;;3.90;92.50;;;;;;5095098;28;20168;-82
2021/04/15 04:58:10;;;;;;;14.73;6.13;;;3.90;91.90;;;;;;5095461;28;20247;-81
2021/04/15 05:00:42;;;;;;;10.67;6.23;;;3.90;92.20;;;;;;5095015;28;20179;-79
2021/04/15 05:03:08;;;;;;;11.97;6.47;;;3.90;92.90;;;;;;5094994;28;20172;-80
2021/04/15 05:05:34;;;;;;;17.97;7.73;;;3.80;93.30;;;;;;5076790;28;20219;-81
2021/04/15 05:08:14;;;;;;;13.37;6.90;;;3.80;93.70;;;;;;5094816;28;20652;-81
2021/04/15 05:10:40;;;;;;;12.13;6.30;;;3.80;93.80;;;;;;5094848;28;20194;-82
2021/04/15 05:13:17;;;;;;;9.77;6.47;;;3.80;93.80;;;;;;5076511;28;20187;-81
2021/04/15 05:15:44;;;;;;;13.10;6.97;;;3.90;94.20;;;;;;5094449;28;20167;-80
2021/04/15 05:18:12;;;;;;;13.70;7.57;;;3.90;94.10;;;;;;5076968;28;20335;-81
2021/04/15 05:20:38;;;;;;;11.30;6.63;;;3.90;94.00;;;;;;5094616;28;20167;-80
2021/04/15 05:23:24;;;;;;;14.23;7.27;;;4.00;94.10;;;;;;5094483;28;20178;-81
2021/04/15 05:26:18;;;;;;;11.07;6.53;;;3.90;93.50;;;;;;5075836;28;20191;-81
2021/04/15 05:28:45;;;;;;;10.17;6.63;;;4.00;93.70;;;;;;5076194;28;20267;-81
2021/04/15 05:31:14;;;;;;;12.57;7.33;;;4.10;93.50;;;;;;5076305;28;20172;-82
2021/04/15 05:33:40;;;;;;;13.37;7.20;;;4.10;93.00;;;;;;5076434;28;20626;-83
2021/04/15 05:36:21;;;;;;;12.83;6.77;;;4.20;92.50;;;;;;5079482;28;20179;-78
2021/04/15 05:38:50;;;;;;;15.07;7.00;;;4.20;91.80;;;;;;5096165;28;20179;-80
2021/04/15 05:41:35;;;;;;;13.07;8.17;;;4.30;91.90;;;;;;5094440;28;20267;-81
2021/04/15 05:44:16;;;;;;;14.20;9.23;;;4.20;92.10;;;;;;5075276;28;20184;-83
2021/04/15 05:46:47;;;;;;;15.83;7.07;;;4.30;92.00;;;;;;5094149;28;20251;-81
2021/04/15 05:49:26;;;;;;;13.23;6.97;;;4.40;91.40;;;;;;5094126;28;20203;-81
2021/04/15 05:52:27;;;;;;;14.23;7.73;;;4.40;90.80;;;;;;5075673;28;20642;-81
2021/04/15 05:55:03;;;;;;;13.77;7.67;;;4.40;90.70;;;;;;5031945;28;20191;-81
2021/04/15 05:57:34;;;;;;;12.93;8.13;;;4.50;90.90;;;;;;5093594;28;20179;-82
2021/04/15 06:00:14;;;;;;;12.47;7.20;;;4.60;90.80;;;;;;5093988;28;20164;-82
2021/04/15 06:03:01;;;;;;;13.97;7.30;;;4.60;90.00;;;;;;5075861;28;20244;-80
2021/04/15 06:05:38;;;;;;;14.27;7.30;;;4.70;88.50;;;;;;5075378;28;20696;-81
2021/04/15 06:08:09;;;;;;;11.87;6.97;;;4.80;86.30;;;;;;5093887;28;20160;-80
2021/04/15 06:10:40;;;;;;;10.53;7.00;;;4.70;87.30;;;;;;5075575;28;20214;-79
2021/04/15 06:13:24;;;;;;;15.60;7.97;;;4.70;87.50;;;;;;5074924;28;20171;-81
2021/04/15 06:15:53;;;;;;;12.97;7.37;;;4.80;87.30;;;;;;5093699;28;20269;-80
2021/04/15 06:18:32;;;;;;;17.73;7.13;;;4.90;86.90;;;;;;5075608;28;20182;-80
2021/04/15 06:21:02;;;;;;;13.63;7.50;;;4.90;85.80;;;;;;5074841;28;20175;-81
2021/04/15 06:23:42;;;;;;;12.07;7.03;;;5.00;84.00;;;;;;5075257;28;20176;-80
2021/04/15 06:26:31;;;;;;;10.37;6.80;;;5.00;83.20;;;;;;5075022;28;20171;-82
2021/04/15 06:29:02;;;;;;;15.03;7.87;;;5.00;82.80;;;;;;5074719;28;20222;-83
2021/04/15 06:31:42;;;;;;;14.33;7.43;;;5.10;82.60;;;;;;5075137;28;20507;-83
2021/04/15 06:34:12;;;;;;;13.03;6.90;;;5.20;80.40;;;;;;5093302;28;20194;-82
2021/04/15 06:36:53;;;;;;;16.77;7.57;;;5.30;77.90;;;;;;5092953;28;20545;-83
2021/04/15 06:39:40;;;;;;;13.43;6.90;;;5.40;75.90;;;;;;5093124;28;20167;-83
2021/04/15 06:42:30;;;;;;;13.50;7.20;;;5.40;73.70;;;;;;5074497;28;20255;-81
2021/04/15 06:45:21;;;;;;;15.13;6.43;;;5.40;74.50;;;;;;5093107;28;20174;-82
2021/04/15 06:48:18;;;;;;;12.70;6.30;;;5.40;70.80;;;;;;5074847;28;20168;-82
2021/04/15 06:50:46;;;;;;;11.60;6.93;;;5.40;70.00;;;;;;5074149;28;20203;-81
2021/04/15 06:53:49;;;;;;;10.77;7.20;;;5.50;70.30;;;;;;5092731;28;20176;-81
2021/04/15 06:56:54;;;;;;;15.30;6.37;;;5.60;69.70;;;;;;5092839;28;20168;-83
2021/04/15 06:59:35;;;;;;;10.80;6.17;;;5.80;66.90;;;;;;5074622;28;20167;-83
2021/04/15 07:02:10;;;;;;;15.93;6.70;;;5.90;62.30;;;;;;5074584;28;20223;-83
2021/04/15 07:04:55;;;;;;;19.63;7.47;;;6.00;58.70;;;;;;5092746;28;20174;-81
2021/04/15 07:07:38;;;;;;;10.60;6.07;;;6.00;56.60;;;;;;5074459;28;20547;-83
2021/04/15 07:10:45;;;;;;;16.67;6.47;;;6.10;57.10;;;;;;5074445;28;20203;-82
2021/04/15 07:13:42;;;;;;;23.90;5.77;;;6.20;53.50;;;;;;5092511;28;20167;-82
2021/04/15 07:16:22;;;;;;;10.63;4.50;;;6.30;48.60;;;;;;5094396;28;20246;-83
2021/04/15 07:19:09;;;;;;;12.23;5.97;;;6.20;43.50;;;;;;5074799;28;20191;-84
2021/04/15 07:22:03;;;;;;;9.77;4.13;;;6.10;45.30;;;;;;5074403;28;20175;-80
2021/04/15 07:25:02;;;;;;;11.07;4.03;;;6.10;50.70;;;;;;5074699;28;20175;-82
2021/04/15 07:27:54;;;;;;;10.97;4.90;;;6.10;46.10;;;;;;5097142;28;20619;-82
2021/04/15 07:30:29;;;;;;;10.70;5.07;;;6.10;47.10;;;;;;5082338;28;20698;-81
2021/04/15 07:33:08;;;;;;;9.73;5.20;;;6.10;48.60;;;;;;5078363;28;20208;-82
2021/04/15 07:35:49;;;;;;;10.80;4.97;;;6.20;47.10;;;;;;5078653;28;20167;-81
2021/04/15 07:38:52;;;;;;;13.40;5.83;;;6.30;44.00;;;;;;5096863;28;20171;-83
2021/04/15 07:41:43;;;;;;;9.17;3.97;;;6.40;44.50;;;;;;5096860;28;20175;-82
2021/04/15 07:44:30;;;;;;;9.80;5.10;;;6.50;41.30;;;;;;5097222;28;20160;-83
2021/04/15 07:47:13;;;;;;;10.50;5.60;;;6.60;32.40;;;;;;5096268;28;20704;-81
2021/04/15 07:50:28;;;;;;;12.50;5.23;;;6.60;32.40;;;;;;5078159;28;20199;-83
2021/04/15 07:53:06;;;;;;;10.17;4.23;;;6.80;27.70;;;;;;5096408;28;20175;-83
2021/04/15 07:55:59;;;;;;;10.00;4.50;;;6.90;17.00;;;;;;5078236;28;20208;-82
2021/04/15 07:58:58;;;;;;;9.33;4.80;;;6.90;17.00;;;;;;5096521;28;20250;-82
2021/04/15 08:01:53;;;;;;;8.73;3.80;;;7.10;15.50;;;;;;5095683;28;20262;-82
2021/04/15 08:04:38;;;;;;;10.07;4.77;;;7.30;7.50;;;;;;5095719;28;20168;-84
2021/04/15 08:07:31;;;;;;;11.57;5.07;;;7.10;3.80;;;;;;5077877;28;20620;-84
2021/04/15 08:10:34;;;;;;;7.33;3.30;;;7.30;2.80;;;;;;5077912;28;20207;-83
2021/04/15 08:13:12;;;;;;;8.13;3.60;;;7.40;1.00;;;;;;5077616;28;20594;-82
2021/04/15 08:15:56;;;;;;;7.63;3.47;;;7.40;1.00;;;;;;5096027;28;20210;-82
2021/04/15 08:18:21;;;;;;;7.83;3.07;;;7.50;1.00;;;;;;5096173;28;20164;-83
2021/04/15 08:21:05;;;;;;;6.87;2.60;;;7.60;1.00;;;;;;5077617;28;20213;-81
2021/04/15 08:23:46;;;;;;;6.53;3.00;;;7.60;1.00;;;;;;5095808;28;20171;-81
2021/04/15 08:26:17;;;;;;;6.93;2.30;;;7.70;1.00;;;;;;5095766;28;20164;-84
2021/04/15 08:28:59;;;;;;;8.63;3.07;;;7.80;1.00;;;;;;5077310;28;20276;-83
2021/04/15 08:31:46;;;;;;;10.03;3.30;;;7.80;1.00;;;;;;5077374;28;20270;-80
2021/04/15 08:34:37;;;;;;;9.97;3.13;;;7.70;1.00;;;;;;5095758;28;20175;-83
2021/04/15 08:37:21;;;;;;;5.00;2.60;;;7.70;1.00;;;;;;5077262;28;20670;-82
2021/04/15 08:40:15;;;;;;;5.57;2.27;;;7.70;1.00;;;;;;5096083;28;20159;-83
2021/04/15 08:42:55;;;;;;;9.23;3.17;;;7.90;1.00;;;;;;5095089;28;20171;-80
2021/04/15 08:45:51;;;;;;;5.83;2.07;;;8.20;1.00;;;;;;5076866;28;20186;-84
2021/04/15 08:48:21;;;;;;;5.57;2.50;;;8.30;1.00;;;;;;5095385;28;20170;-82
2021/04/15 08:51:06;;;;;;;6.07;2.50;;;8.10;1.00;;;;;;5095438;28;20616;-82
2021/04/15 08:53:46;;;;;;;7.07;2.10;;;8.10;1.00;;;;;;5095271;28;20195;-81
2021/04/15 08:56:18;;;;;;;4.33;2.13;;;8.20;1.00;;;;;;5095215;28;20168;-83
2021/04/15 08:59:26;;;;;;;8.10;2.87;;;8.30;1.00;;;;;;5095196;28;20179;-81
2021/04/15 09:02:24;;;;;;;9.90;1.70;;;8.20;1.00;;;;;;5013334;28;20657;-84
2021/04/15 09:04:56;;;;;;;7.23;2.07;;;8.10;1.00;;;;;;5077086;28;20168;-83
2021/04/15 09:07:32;;;;;;;4.03;1.30;;;8.00;1.00;;;;;;5095153;28;20163;-83
2021/04/15 09:10:16;;;;;;;4.63;1.77;;;8.10;1.00;;;;;;5095251;28;20759;-81
2021/04/15 09:13:18;;;;;;;5.07;1.37;;;8.10;1.00;;;;;;5076491;28;20197;-82
2021/04/15 09:16:29;;;;;;;5.53;1.90;;;8.00;1.00;;;;;;5076443;28;20179;-81
2021/04/15 09:19:02;;;;;;;5.70;2.07;;;8.20;1.00;;;;;;5094809;28;20647;-83
2021/04/15 09:21:50;;;;;;;4.20;1.83;;;8.10;1.00;;;;;;5094912;28;20170;-82
2021/04/15 09:24:43;;;;;;;6.53;2.20;;;8.20;1.00;;;;;;5076871;28;20175;-82
2021/04/15 09:27:28;;;;;;;4.10;1.90;;;8.00;1.00;;;;;;5076997;28;20545;-82
2021/04/15 09:30:04;;;;;;;5.07;2.70;;;7.90;1.00;;;;;;5094147;28;20207;-83
2021/04/15 09:32:52;;;;;;;6.73;2.13;;;7.90;1.00;;;;;;5094799;28;20174;-83
2021/04/15 09:35:52;;;;;;;6.93;2.43;;;8.20;1.00;;;;;;5075889;28;20168;-83
2021/04/15 09:38:49;;;;;;;7.20;2.10;;;8.40;1.00;;;;;;5088769;28;20523;-80
2021/04/15 09:41:40;;;;;;;5.40;2.60;;;8.50;1.00;;;;;;5094428;28;20258;-82
2021/04/15 09:44:24;;;;;;;7.37;3.83;;;8.40;1.00;;;;;;5093863;28;20202;-82
2021/04/15 09:47:12;;;;;;;7.53;4.77;;;7.90;1.00;;;;;;5076177;28;20175;-81
2021/04/15 09:49:49;;;;;;;7.97;4.83;;;7.40;1.00;;;;;;5092973;28;20204;-80
2021/04/15 09:52:45;;;;;;;5.80;4.20;;;7.10;1.00;;;;;;5094042;28;20678;-81
2021/04/15 09:55:31;;;;;;;5.73;4.67;;;7.20;5.20;;;;;;5094229;28;20172;-84
2021/04/15 09:58:34;;;;;;;7.93;4.73;;;7.20;1.00;;;;;;5075549;28;20160;-83
2021/04/15 10:01:14;;;;;;;6.40;4.33;;;7.20;5.80;;;;;;5075616;28;20268;-83
2021/04/15 10:04:02;;;;;;;7.37;3.30;;;7.30;6.80;;;;;;5094109;28;20164;-81
2021/04/15 10:06:37;;;;;;;6.33;3.80;;;7.40;1.00;;;;;;5075318;28;20175;-85
2021/04/15 10:09:17;;;;;;;5.53;3.97;;;7.50;1.00;;;;;;5093727;28;20207;-84
2021/04/15 10:12:07;;;;;;;5.40;3.00;;;7.70;1.00;;;;;;5075418;28;20499;-83
2021/04/15 10:14:49;;;;;;;6.17;3.50;;;7.50;1.00;;;;;;5093781;28;20179;-81
2021/04/15 10:17:48;;;;;;;5.30;3.50;;;7.60;1.00;;;;;;5093511;28;20272;-82
2021/04/15 10:20:33;;;;;;;3.40;2.63;;;7.70;1.00;;;;;;5075352;28;20220;-82
2021/04/15 10:23:22;;;;;;;6.07;3.43;;;7.70;1.00;;;;;;5075056;28;20659;-82
2021/04/15 10:26:14;;;;;;;5.93;3.40;;;7.90;1.00;;;;;;5075240;28;20178;-84
2021/04/15 10:28:57;;;;;;;6.47;3.20;;;8.00;1.00;;;;;;5075354;28;20655;-83
2021/04/15 10:31:51;;;;;;;7.77;3.80;;;8.00;1.00;;;;;;5074787;28;20216;-84
2021/04/15 10:34:59;;;;;;;6.70;3.57;;;8.20;1.00;;;;;;5093391;28;20168;-83
2021/04/15 10:37:27;;;;;;;4.70;3.07;;;8.30;1.00;;;;;;5093562;28;20313;-83
2021/04/15 10:40:27;;;;;;;5.60;3.47;;;8.50;1.00;;;;;;5075161;28;20203;-83
2021/04/15 10:43:20;;;;;;;6.73;3.27;;;8.80;1.00;;;;;;5092778;28;20635;-82
2021/04/15 10:46:40;;;;;;;5.77;2.70;;;9.00;1.00;;;;;;5093033;28;20255;-84
2021/04/15 10:49:09;;;;;;;7.90;2.90;;;9.10;1.00;;;;;;5011190;28;20288;-84
2021/04/15 10:52:00;;;;;;;7.33;2.93;;;8.90;1.00;;;;;;5010902;28;20284;-83
2021/04/15 10:54:32;;;;;;;5.37;2.83;;;8.90;1.00;;;;;;5065260;28;20190;-84
2021/04/15 10:57:19;;;;;;;9.43;3.20;;;9.00;99.90;;;;;;5074316;28;20631;-83
2021/04/15 10:59:47;;;;;;;5.07;2.67;;;8.80;1.00;;;;;;5092525;28;20167;-83
2021/04/15 11:02:23;;;;;;;6.30;2.70;;;8.90;99.90;;;;;;5093489;28;20168;-83
2021/04/15 11:04:51;;;;;;;6.83;2.70;;;9.00;99.90;;;;;;5093392;28;20571;-83
2021/04/15 11:07:24;;;;;;;7.60;2.90;;;9.00;1.00;;;;;;5092825;28;20159;-84
2021/04/15 11:09:53;;;;;;;6.80;3.73;;;8.80;1.00;;;;;;5092439;28;20655;-83
2021/04/15 11:12:27;;;;;;;7.30;3.33;;;8.80;1.00;;;;;;5074247;28;20176;-81
2021/04/15 11:15:13;;;;;;;6.47;3.30;;;8.80;1.00;;;;;;5074675;28;20171;-84
2021/04/15 11:17:42;;;;;;;8.23;3.50;;;8.80;1.00;;;;;;5074468;28;20512;-84
2021/04/15 11:20:14;;;;;;;10.07;3.27;;;8.90;1.00;;;;;;5092454;28;20639;-83
2021/04/15 11:22:56;;;;;;;11.00;4.20;;;9.10;1.00;;;;;;5074271;28;20229;-83
2021/04/15 11:25:34;;;;;;;5.60;3.50;;;9.30;1.00;;;;;;5074433;28;20281;-82
2021/04/15 11:28:11;;;;;;;5.60;3.17;;;9.60;99.90;;;;;;5092225;28;20160;-83
2021/04/15 11:30:47;;;;;;;4.87;3.17;;;9.60;99.90;;;;;;5092502;28;20207;-84
2021/04/15 11:33:48;;;;;;;5.80;2.50;;;9.60;99.90;;;;;;5074424;28;20190;-82
2021/04/15 11:36:22;;;;;;;8.20;2.77;;;9.70;1.00;;;;;;5092654;28;20690;-84
2021/04/15 11:38:52;;;;;;;9.03;3.57;;;10.00;99.90;;;;;;5092111;28;20174;-83
2021/04/15 11:41:29;;;;;;;9.67;3.13;;;10.10;58.60;;;;;;5074474;28;20172;-84
2021/04/15 11:44:56;;;;;;;7.77;2.93;;;10.40;1.00;;;;;;5074625;28;20175;-83
2021/04/15 11:47:28;;;;;;;3.83;2.80;;;10.50;1.00;;;;;;5068948;28;20235;-82
2021/04/15 11:50:14;;;;;;;8.20;2.90;;;10.90;6.50;;;;;;5074276;28;20207;-83
2021/04/15 11:52:45;;;;;;;5.63;3.00;;;11.30;99.90;;;;;;5074357;28;20195;-83
2021/04/15 11:55:26;;;;;;;5.60;2.93;;;11.20;1.00;;;;;;5092441;28;20160;-85
2021/04/15 11:57:54;;;;;;;6.77;3.10;;;10.80;1.00;;;;;;5074356;28;20164;-84
2021/04/15 12:00:35;;;;;;;5.10;2.97;;;10.50;1.00;;;;;;5092458;28;20159;-83
2021/04/15 12:03:00;;;;;;;5.63;3.00;;;10.30;1.00;;;;;;5074262;28;20501;-86
2021/04/15 12:05:32;;;;;;;7.00;3.03;;;10.10;99.90;;;;;;5074136;28;20233;-85
2021/04/15 12:08:22;;;;;;;8.57;3.43;;;9.90;1.00;;;;;;5091749;28;20160;-83
2021/04/15 12:11:24;;;;;;;6.30;3.37;;;9.70;1.00;;;;;;5073830;28;20203;-84
2021/04/15 12:14:16;;;;;;;5.97;3.50;;;9.30;99.90;;;;;;5087406;28;20224;-85
2021/04/15 12:16:54;;;;;;;4.87;3.30;;;9.30;1.00;;;;;;5096115;28;20262;-84
2021/04/15 12:19:45;;;;;;;7.90;4.37;;;9.30;99.90;;;;;;5077333;28;20237;-82
2021/04/15 12:22:16;;;;;;;4.77;3.23;;;9.30;1.00;;;;;;5077156;28;20171;-84
2021/04/15 12:24:42;;;;;;;5.20;3.17;;;9.10;1.00;;;;;;5077549;28;20171;-85
2021/04/15 12:27:13;;;;;;;6.57;2.97;;;8.90;57.70;;;;;;5095951;28;20596;-81
2021/04/15 12:29:43;;;;;;;3.63;2.57;;;8.80;99.90;;;;;;5094959;28;20207;-84
2021/04/15 12:32:36;;;;;;;9.53;3.40;;;8.80;99.90;;;;;;5095688;28;20168;-83
2021/04/15 12:35:42;;;;;;;7.20;3.13;;;8.80;99.90;;;;;;5095448;28;20240;-83
2021/04/15 12:38:26;;;;;;;5.80;2.13;;;8.90;99.90;;;;;;5066622;28;20180;-80
2021/04/15 12:41:09;;;;;;;7.87;2.53;;;9.00;1.00;;;;;;5077187;28;20171;-85
2021/04/15 12:43:47;;;;;;;4.50;2.43;;;9.00;1.00;;;;;;5076759;28;20513;-82
2021/04/15 12:46:22;;;;;;;5.07;2.23;;;9.10;99.90;;;;;;5095490;28;20269;-84
2021/04/15 12:48:48;;;;;;;6.77;2.50;;;9.30;99.90;;;;;;5076867;28;20201;-84
2021/04/15 12:51:21;;;;;;;5.80;2.53;;;9.40;99.90;;;;;;5077105;28;20659;-82
2021/04/15 12:53:47;;;;;;;5.50;2.63;;;9.50;1.00;;;;;;5095187;28;20270;-84
2021/04/15 12:56:16;;;;;;;5.37;2.40;;;9.60;1.00;;;;;;5095207;28;20662;-84
2021/04/15 12:58:44;;;;;;;4.77;2.43;;;9.70;99.90;;;;;;5095111;28;20159;-84
2021/04/15 13:01:10;;;;;;;6.13;2.30;;;9.80;99.90;;;;;;5095022;28;20190;-85
2021/04/15 13:03:38;;;;;;;4.47;1.93;;;9.80;1.00;;;;;;5094863;28;20175;-84
2021/04/15 13:06:18;;;;;;;4.03;2.33;;;9.90;1.00;;;;;;5076618;28;20221;-84
2021/04/15 13:08:56;;;;;;;4.37;2.30;;;10.00;99.90;;;;;;5076200;28;20171;-83
2021/04/15 13:11:22;;;;;;;5.73;2.63;;;10.10;1.00;;;;;;5094788;28;20647;-84
2021/04/15 13:13:54;;;;;;;7.87;2.43;;;10.20;99.90;;;;;;5076308;28;20183;-84
2021/04/15 13:16:32;;;;;;;5.43;2.60;;;10.20;1.00;;;;;;5075999;28;20175;-82
2021/04/15 13:19:00;;;;;;;8.30;2.70;;;10.40;1.00;;;;;;5076045;28;20559;-83
2021/04/15 13:21:28;;;;;;;4.83;2.40;;;10.40;1.00;;;;;;5094732;28;20164;-83
2021/04/15 13:23:54;;;;;;;5.43;2.80;;;10.60;99.90;;;;;;5094326;28;20179;-83
2021/04/15 13:26:27;;;;;;;6.63;2.67;;;11.10;99.90;;;;;;5094719;28;20224;-84
2021/04/15 13:28:56;;;;;;;3.90;2.37;;;11.30;1.00;;;;;;5075954;28;20259;-82
2021/04/15 13:31:46;;;;;;;4.13;2.40;;;11.40;99.90;;;;;;5094529;28;20210;-83
2021/04/15 13:34:39;;;;;;;5.23;2.03;;;11.30;1.00;;;;;;5076452;28;20180;-84
2021/04/15 13:37:43;;;;;;;4.73;2.30;;;11.10;99.90;;;;;;5092601;28;20685;-84
2021/04/15 13:40:16;;;;;;;5.47;3.00;;;10.90;99.90;;;;;;5076152;28;20216;-83
2021/04/15 13:42:43;;;;;;;6.90;2.90;;;10.90;99.90;;;;;;5080259;28;20533;-84
2021/04/15 13:45:30;;;;;;;5.27;2.70;;;11.00;1.00;;;;;;5077623;28;20620;-84
2021/04/15 13:47:56;;;;;;;4.43;2.53;;;10.80;1.00;;;;;;5103209;28;20202;-82
2021/04/15 13:51:01;;;;;;;4.43;2.80;;;10.30;74.50;;;;;;5093465;28;20207;-84
2021/04/15 13:53:46;;;;;;;5.27;3.10;;;10.10;1.00;;;;;;5076075;28;20168;-82
2021/04/15 13:56:25;;;;;;;9.57;3.47;;;9.90;99.90;;;;;;5094059;28;20175;-84
2021/04/15 13:58:51;;;;;;;4.27;3.40;;;9.80;1.00;;;;;;5075550;28;20575;-84
2021/04/15 14:01:38;;;;;;;7.17;2.80;;;9.60;63.30;;;;;;5074824;28;20206;-84